Time;durP1;ratioP1;P1;durP2;ratioP2;P2;SDS_P1;SDS_P2;PMS_P1;PMS_P2;Temp;Humidity;BMP_temperature;BMP_pressure;BME280_temperature;BME280_humidity;BME280_pressure;Samples;Min_cycle;Max_cycle;Signal;HPM_P1;HPM_P2
2021/11/23 00:01:45;;;;;;;7.15;4.55;;;5.40;69.50;;;;;;5038905;28;20414;-35
2021/11/23 00:04:10;;;;;;;10.70;4.63;;;5.40;69.50;;;;;;5039358;28;20053;-35
2021/11/23 00:06:37;;;;;;;10.18;4.82;;;5.40;69.60;;;;;;5038903;28;20048;-45
2021/11/23 00:09:04;;;;;;;7.53;4.43;;;5.40;69.80;;;;;;5039429;28;20112;-35
2021/11/23 00:11:31;;;;;;;5.70;4.13;;;5.40;69.90;;;;;;5038797;28;20084;-36
2021/11/23 00:13:57;;;;;;;8.25;4.22;;;5.30;70.00;;;;;;5039291;28;20105;-45
2021/11/23 00:16:23;;;;;;;6.30;4.30;;;5.40;70.10;;;;;;5038664;28;20034;-36
2021/11/23 00:18:49;;;;;;;13.38;6.40;;;5.40;70.10;;;;;;5039252;28;20104;-36
2021/11/23 00:21:16;;;;;;;16.25;7.22;;;5.40;70.10;;;;;;5038747;28;20473;-45
2021/11/23 00:23:42;;;;;;;17.50;6.93;;;5.40;70.10;;;;;;5038858;28;20026;-45
2021/11/23 00:26:08;;;;;;;9.80;4.70;;;5.40;70.20;;;;;;5038723;28;20056;-35
2021/11/23 00:28:34;;;;;;;8.60;5.00;;;5.50;70.10;;;;;;5038811;28;20048;-37
2021/11/23 00:31:00;;;;;;;17.75;10.55;;;5.50;70.10;;;;;;5039017;28;20033;-47
2021/11/23 00:33:31;;;;;;;7.55;4.70;;;5.50;70.00;;;;;;5038539;28;20026;-35
2021/11/23 00:35:57;;;;;;;5.78;3.83;;;5.50;69.80;;;;;;5037916;28;20033;-34
2021/11/23 00:38:23;;;;;;;9.13;4.40;;;5.50;69.80;;;;;;5038691;28;20029;-45
2021/11/23 00:40:48;;;;;;;7.75;4.20;;;5.50;69.60;;;;;;5038751;28;20079;-45
2021/11/23 00:43:14;;;;;;;5.95;4.18;;;5.40;69.50;;;;;;5038209;28;20044;-34
2021/11/23 00:45:42;;;;;;;6.25;3.72;;;5.40;69.40;;;;;;5038859;28;20025;-38
2021/11/23 00:48:09;;;;;;;7.68;4.18;;;5.40;69.50;;;;;;5038384;28;20029;-34
2021/11/23 00:50:36;;;;;;;7.63;4.57;;;5.40;69.50;;;;;;5038794;28;20083;-34
2021/11/23 00:53:05;;;;;;;6.50;4.57;;;5.40;69.60;;;;;;5038166;28;20226;-45
2021/11/23 00:55:32;;;;;;;5.95;4.10;;;5.30;69.60;;;;;;5038089;28;20034;-44
2021/11/23 00:57:58;;;;;;;6.05;3.72;;;5.30;70.10;;;;;;5037725;28;20563;-45
2021/11/23 01:00:24;;;;;;;8.65;5.10;;;5.30;69.50;;;;;;5037249;28;20025;-35
2021/11/23 01:02:51;;;;;;;8.82;4.20;;;5.20;69.40;;;;;;5038124;28;20454;-34
2021/11/23 01:05:17;;;;;;;8.70;4.25;;;5.20;69.40;;;;;;5038389;28;20125;-37
2021/11/23 01:07:42;;;;;;;6.43;4.10;;;5.20;69.30;;;;;;5037825;28;20041;-45
2021/11/23 01:10:10;;;;;;;8.13;4.78;;;5.10;69.10;;;;;;5038075;28;20037;-36
2021/11/23 01:12:36;;;;;;;7.50;4.53;;;5.00;69.10;;;;;;5038043;28;20338;-46
2021/11/23 01:15:05;;;;;;;6.40;4.32;;;5.00;69.10;;;;;;5038066;28;20037;-35
2021/11/23 01:17:31;;;;;;;6.43;4.57;;;5.00;69.10;;;;;;5037651;28;20037;-46
2021/11/23 01:19:57;;;;;;;7.90;4.47;;;4.90;69.00;;;;;;5038024;28;20026;-46
2021/11/23 01:22:23;;;;;;;9.25;5.10;;;4.90;69.10;;;;;;5037494;28;20040;-46
2021/11/23 01:24:49;;;;;;;8.07;4.85;;;4.90;69.20;;;;;;5038040;28;20036;-46
2021/11/23 01:27:15;;;;;;;8.98;4.53;;;4.90;69.70;;;;;;5037532;28;20034;-35
2021/11/23 01:29:41;;;;;;;7.60;3.42;;;4.90;69.10;;;;;;5037694;28;20028;-46
2021/11/23 01:32:07;;;;;;;5.93;3.38;;;4.80;68.90;;;;;;5037239;28;20033;-35
2021/11/23 01:34:33;;;;;;;8.50;4.30;;;4.80;68.90;;;;;;5037932;28;20034;-46
2021/11/23 01:36:59;;;;;;;6.40;4.25;;;4.80;69.00;;;;;;5037336;28;20041;-46
2021/11/23 01:39:25;;;;;;;6.80;3.58;;;4.70;69.10;;;;;;5037761;28;20021;-47
2021/11/23 01:41:51;;;;;;;8.07;3.63;;;4.80;69.20;;;;;;5037006;28;20380;-45
2021/11/23 01:44:17;;;;;;;5.97;3.78;;;4.70;69.00;;;;;;5037652;28;20021;-36
2021/11/23 01:46:43;;;;;;;8.85;4.07;;;4.70;69.10;;;;;;5036792;28;20125;-37
2021/11/23 01:49:08;;;;;;;4.38;3.40;;;4.70;69.20;;;;;;5037138;28;20104;-46
2021/11/23 01:51:34;;;;;;;7.15;4.28;;;4.60;69.20;;;;;;5036887;28;20056;-36
2021/11/23 01:54:00;;;;;;;5.68;3.70;;;4.60;69.20;;;;;;5037169;28;20032;-35
2021/11/23 01:56:27;;;;;;;5.90;3.55;;;4.60;69.30;;;;;;5037026;28;20068;-36
2021/11/23 01:58:52;;;;;;;9.30;4.53;;;4.60;69.30;;;;;;5037146;28;20045;-47
2021/11/23 02:01:18;;;;;;;5.97;3.78;;;4.50;69.50;;;;;;5036933;28;20540;-37
2021/11/23 02:03:44;;;;;;;6.55;4.03;;;4.50;69.60;;;;;;5037105;28;20033;-35
2021/11/23 02:06:10;;;;;;;6.68;3.80;;;4.50;69.70;;;;;;5037163;28;20030;-35
2021/11/23 02:08:36;;;;;;;6.18;3.95;;;4.50;69.80;;;;;;5036625;28;20021;-47
2021/11/23 02:11:03;;;;;;;7.38;3.83;;;4.50;69.90;;;;;;5037207;28;20152;-46
2021/11/23 02:13:29;;;;;;;5.00;3.45;;;4.50;70.00;;;;;;5036839;28;20029;-37
2021/11/23 02:15:59;;;;;;;6.00;3.72;;;4.50;70.20;;;;;;5037111;28;20030;-47
2021/11/23 02:18:26;;;;;;;7.10;4.75;;;4.50;70.30;;;;;;5036621;28;20438;-36
2021/11/23 02:20:53;;;;;;;5.65;4.20;;;4.50;70.40;;;;;;5037001;28;20053;-37
2021/11/23 02:23:19;;;;;;;6.05;4.10;;;4.40;70.40;;;;;;5036463;28;20033;-35
2021/11/23 02:25:46;;;;;;;5.78;4.00;;;4.40;70.50;;;;;;5036798;28;20164;-36
2021/11/23 02:28:13;;;;;;;5.88;3.97;;;4.40;70.50;;;;;;5036083;28;20132;-46
2021/11/23 02:30:47;;;;;;;6.78;4.10;;;4.40;70.60;;;;;;5037014;28;20087;-38
2021/11/23 02:33:18;;;;;;;6.45;4.13;;;4.40;70.50;;;;;;5036628;28;20029;-46
2021/11/23 02:35:44;;;;;;;5.50;4.22;;;4.30;70.40;;;;;;5036794;28;20072;-46
2021/11/23 02:38:10;;;;;;;7.85;4.32;;;4.30;70.60;;;;;;5036177;28;20030;-47
2021/11/23 02:40:36;;;;;;;7.32;4.85;;;4.30;70.60;;;;;;5036746;28;20040;-47
2021/11/23 02:43:02;;;;;;;8.60;4.60;;;4.30;70.70;;;;;;5036248;28;20029;-45
2021/11/23 02:45:28;;;;;;;7.88;4.53;;;4.30;70.70;;;;;;5036711;28;20029;-35
2021/11/23 02:47:56;;;;;;;9.52;5.30;;;4.30;70.70;;;;;;5035991;28;20112;-35
2021/11/23 02:50:23;;;;;;;6.63;4.30;;;4.30;70.60;;;;;;5036561;28;20417;-35
2021/11/23 02:52:50;;;;;;;7.18;4.88;;;4.20;70.70;;;;;;5035841;28;20052;-35
2021/11/23 02:55:18;;;;;;;9.65;3.90;;;4.20;70.80;;;;;;5035874;28;20049;-45
2021/11/23 02:57:44;;;;;;;7.05;3.95;;;4.20;70.80;;;;;;5035980;28;20484;-35
2021/11/23 03:00:25;;;;;;;7.15;4.13;;;4.20;70.70;;;;;;5035847;28;20041;-34
2021/11/23 03:02:52;;;;;;;9.75;4.70;;;4.20;70.70;;;;;;5035774;28;20026;-45
2021/11/23 03:05:20;;;;;;;6.65;4.32;;;4.20;70.80;;;;;;5036423;28;20053;-44
2021/11/23 03:07:47;;;;;;;6.90;3.97;;;4.20;70.80;;;;;;5035822;28;20025;-35
2021/11/23 03:10:13;;;;;;;6.65;3.90;;;4.20;70.90;;;;;;5036100;28;20045;-35
2021/11/23 03:12:40;;;;;;;7.45;4.05;;;4.20;70.90;;;;;;5035622;28;20037;-34
2021/11/23 03:15:07;;;;;;;10.30;4.82;;;4.20;70.80;;;;;;5036092;28;20115;-45
2021/11/23 03:17:33;;;;;;;9.65;4.75;;;4.20;70.80;;;;;;5035414;28;20026;-36
2021/11/23 03:19:59;;;;;;;7.72;4.28;;;4.20;70.70;;;;;;5036077;28;20318;-45
2021/11/23 03:22:25;;;;;;;8.32;4.95;;;4.20;70.80;;;;;;5035544;28;20108;-35
2021/11/23 03:24:53;;;;;;;8.95;4.35;;;4.10;70.80;;;;;;5035869;28;20026;-46
2021/11/23 03:27:19;;;;;;;6.03;4.10;;;4.10;70.80;;;;;;5035527;28;20033;-45
2021/11/23 03:29:45;;;;;;;6.38;4.20;;;4.10;70.80;;;;;;5034691;28;20036;-35
2021/11/23 03:32:11;;;;;;;7.45;4.75;;;4.00;70.80;;;;;;5035716;28;20033;-46
2021/11/23 03:34:38;;;;;;;8.55;4.90;;;4.00;71.00;;;;;;5035630;28;20426;-35
2021/11/23 03:37:12;;;;;;;8.85;4.90;;;4.00;71.00;;;;;;5035334;28;20040;-36
2021/11/23 03:39:38;;;;;;;5.15;3.58;;;4.00;70.90;;;;;;5036079;28;20033;-35
2021/11/23 03:42:05;;;;;;;5.47;3.40;;;3.90;70.70;;;;;;5035285;28;20484;-46
2021/11/23 03:44:31;;;;;;;4.35;3.15;;;3.90;71.20;;;;;;5035832;28;20029;-46
2021/11/23 03:46:58;;;;;;;6.85;3.80;;;3.90;70.70;;;;;;5035122;28;20053;-45
2021/11/23 03:49:24;;;;;;;5.32;3.25;;;3.90;70.60;;;;;;5035467;28;20113;-46
2021/11/23 03:51:50;;;;;;;5.65;3.47;;;3.90;70.60;;;;;;5035187;28;20068;-35
2021/11/23 03:54:16;;;;;;;4.25;2.92;;;3.80;70.10;;;;;;5034290;28;20045;-34
2021/11/23 03:56:42;;;;;;;7.50;3.50;;;3.80;70.10;;;;;;5035517;28;20128;-46
2021/11/23 03:59:08;;;;;;;6.55;3.38;;;3.80;70.10;;;;;;5035854;28;20034;-45
2021/11/23 04:01:34;;;;;;;5.65;3.45;;;3.70;69.80;;;;;;5035155;28;20026;-46
2021/11/23 04:04:00;;;;;;;4.43;3.00;;;3.70;70.00;;;;;;5035392;28;20309;-34
2021/11/23 04:06:26;;;;;;;5.63;3.90;;;3.70;70.10;;;;;;5035407;28;20033;-34
2021/11/23 04:08:51;;;;;;;5.20;3.40;;;3.60;70.20;;;;;;5035505;28;20032;-45
2021/11/23 04:11:17;;;;;;;5.88;3.70;;;3.70;70.40;;;;;;5037598;28;20042;-35
2021/11/23 04:13:43;;;;;;;5.60;3.55;;;3.70;70.40;;;;;;5039019;28;20029;-45
2021/11/23 04:16:10;;;;;;;4.10;3.28;;;3.70;70.30;;;;;;5039045;28;20088;-37
2021/11/23 04:18:36;;;;;;;6.35;3.80;;;3.60;70.20;;;;;;5039214;28;20508;-35
2021/11/23 04:21:03;;;;;;;4.20;3.10;;;3.60;70.20;;;;;;5039190;28;20029;-45
2021/11/23 04:23:29;;;;;;;4.97;3.35;;;3.60;70.10;;;;;;5038861;28;20068;-35
2021/11/23 04:25:54;;;;;;;4.65;3.33;;;3.60;70.20;;;;;;5039300;28;20049;-45
2021/11/23 04:28:20;;;;;;;5.07;3.10;;;3.60;70.40;;;;;;5038730;28;20044;-45
2021/11/23 04:30:46;;;;;;;6.00;3.92;;;3.60;70.40;;;;;;5039212;28;20060;-47
2021/11/23 04:33:13;;;;;;;5.97;3.97;;;3.60;70.20;;;;;;5038488;28;20029;-45
2021/11/23 04:35:41;;;;;;;7.88;4.00;;;3.60;70.20;;;;;;5038913;28;20037;-35
2021/11/23 04:38:08;;;;;;;7.35;4.50;;;3.60;70.20;;;;;;5038486;28;20038;-34
2021/11/23 04:40:34;;;;;;;7.63;4.20;;;3.60;70.30;;;;;;5038910;28;20029;-34
2021/11/23 04:43:01;;;;;;;6.70;3.88;;;3.60;70.30;;;;;;5038582;28;20040;-45
2021/11/23 04:45:28;;;;;;;10.45;4.72;;;3.60;70.30;;;;;;5038885;28;20069;-34
2021/11/23 04:47:55;;;;;;;9.88;5.28;;;3.70;70.30;;;;;;5038044;28;20041;-45
2021/11/23 04:50:21;;;;;;;8.00;4.72;;;3.60;70.10;;;;;;5038491;28;20445;-44
2021/11/23 04:52:47;;;;;;;4.55;2.97;;;3.70;70.30;;;;;;5037948;28;20037;-46
2021/11/23 04:55:13;;;;;;;6.82;4.10;;;3.70;70.30;;;;;;5038077;28;20122;-45
2021/11/23 04:57:39;;;;;;;12.65;6.10;;;3.80;70.30;;;;;;5037746;28;20041;-37
2021/11/23 05:00:07;;;;;;;11.85;4.97;;;3.80;70.20;;;;;;5038219;28;20025;-45
2021/11/23 05:02:33;;;;;;;5.40;3.30;;;3.80;70.00;;;;;;5037902;28;20033;-36
2021/11/23 05:04:58;;;;;;;5.47;3.22;;;3.80;69.70;;;;;;5038201;28;20295;-46
2021/11/23 05:07:24;;;;;;;11.25;4.82;;;3.80;69.50;;;;;;5038068;28;20029;-36
2021/11/23 05:09:50;;;;;;;4.47;2.85;;;3.70;69.80;;;;;;5038115;28;20033;-33
2021/11/23 05:12:16;;;;;;;6.30;3.53;;;3.80;69.20;;;;;;5037856;28;20029;-45
2021/11/23 05:14:41;;;;;;;16.17;5.60;;;3.80;69.10;;;;;;5038141;28;20029;-34
2021/11/23 05:17:07;;;;;;;7.65;3.72;;;3.80;68.90;;;;;;5037735;28;20025;-45
2021/11/23 05:19:33;;;;;;;7.43;3.30;;;3.80;68.90;;;;;;5037886;28;20025;-46
2021/11/23 05:21:59;;;;;;;5.65;2.83;;;3.80;68.80;;;;;;5036821;28;20434;-45
2021/11/23 05:24:24;;;;;;;5.07;2.88;;;3.80;68.70;;;;;;5037740;28;20025;-35
2021/11/23 05:26:50;;;;;;;4.25;2.70;;;3.80;68.70;;;;;;5037293;28;20033;-47
2021/11/23 05:29:16;;;;;;;6.05;3.00;;;3.80;68.70;;;;;;5037561;28;20041;-36
2021/11/23 05:31:41;;;;;;;3.85;3.15;;;3.80;68.50;;;;;;5037104;28;20041;-36
2021/11/23 05:34:07;;;;;;;3.67;2.42;;;3.80;68.60;;;;;;5037603;28;20116;-34
2021/11/23 05:36:34;;;;;;;5.20;2.80;;;3.80;68.70;;;;;;5037176;28;20033;-35
2021/11/23 05:38:59;;;;;;;4.15;2.88;;;3.80;68.60;;;;;;5037262;28;20022;-36
2021/11/23 05:41:25;;;;;;;4.15;2.70;;;3.80;68.30;;;;;;5037076;28;20269;-47
2021/11/23 05:43:51;;;;;;;3.75;2.60;;;3.80;68.20;;;;;;5037164;28;20113;-35
2021/11/23 05:46:17;;;;;;;3.88;2.63;;;3.80;68.30;;;;;;5037160;28;20318;-41
2021/11/23 05:48:43;;;;;;;3.70;2.75;;;3.70;68.50;;;;;;5036809;28;20447;-39
2021/11/23 05:51:09;;;;;;;4.68;2.88;;;3.80;68.50;;;;;;5036920;28;20088;-46
2021/11/23 05:53:36;;;;;;;7.28;2.78;;;3.80;68.60;;;;;;5037155;28;20341;-36
2021/11/23 05:56:03;;;;;;;5.03;3.17;;;3.80;68.50;;;;;;5036577;28;20346;-37
2021/11/23 05:58:29;;;;;;;20.00;10.27;;;3.80;68.50;;;;;;5036712;28;20464;-46
2021/11/23 06:00:55;;;;;;;4.43;2.88;;;3.80;68.50;;;;;;5036851;28;20029;-36
2021/11/23 06:03:21;;;;;;;6.55;3.97;;;3.80;68.50;;;;;;5036396;28;20074;-36
2021/11/23 06:05:46;;;;;;;5.72;3.20;;;3.80;68.80;;;;;;5037041;28;20033;-46
2021/11/23 06:08:12;;;;;;;8.35;3.72;;;3.70;68.10;;;;;;5036420;28;20025;-37
2021/11/23 06:10:39;;;;;;;5.13;3.35;;;3.70;68.10;;;;;;5050809;28;20052;-47
2021/11/23 06:13:05;;;;;;;5.43;3.25;;;3.70;68.20;;;;;;5055316;28;20119;-36
2021/11/23 06:15:32;;;;;;;4.55;3.25;;;3.70;68.10;;;;;;5056276;28;20406;-35
2021/11/23 06:18:02;;;;;;;5.88;3.55;;;3.70;68.10;;;;;;5055860;28;20033;-35
2021/11/23 06:20:29;;;;;;;4.67;3.17;;;3.70;67.80;;;;;;5056542;28;20032;-36
2021/11/23 06:22:57;;;;;;;4.82;2.83;;;3.60;67.50;;;;;;5055707;28;20559;-35
2021/11/23 06:25:22;;;;;;;4.10;3.00;;;3.60;67.30;;;;;;5056331;28;20033;-38
2021/11/23 06:27:48;;;;;;;5.45;3.42;;;3.60;67.40;;;;;;5055732;28;20094;-37
2021/11/23 06:30:14;;;;;;;6.03;3.50;;;3.60;67.30;;;;;;5056011;28;20104;-34
2021/11/23 06:32:40;;;;;;;4.50;3.40;;;3.60;67.10;;;;;;5055726;28;20039;-37
2021/11/23 06:35:06;;;;;;;4.63;3.20;;;3.60;67.00;;;;;;5055333;28;20056;-34
2021/11/23 06:37:31;;;;;;;4.57;2.88;;;3.60;66.80;;;;;;5055198;28;20299;-40
2021/11/23 06:39:57;;;;;;;5.38;3.13;;;3.60;66.70;;;;;;5055560;28;20075;-35
2021/11/23 06:42:23;;;;;;;4.78;3.00;;;3.60;67.00;;;;;;5055654;28;20029;-46
2021/11/23 06:44:49;;;;;;;4.82;2.90;;;3.60;67.10;;;;;;5055257;28;20063;-46
2021/11/23 06:47:15;;;;;;;4.90;2.78;;;3.60;67.40;;;;;;5043723;28;20026;-37
2021/11/23 06:49:41;;;;;;;4.43;3.28;;;3.60;67.50;;;;;;5035496;28;20052;-46
2021/11/23 06:52:08;;;;;;;5.40;3.25;;;3.70;67.50;;;;;;5035105;28;20030;-35
2021/11/23 06:54:34;;;;;;;5.85;2.95;;;3.60;67.30;;;;;;5035511;28;20372;-35
2021/11/23 06:56:59;;;;;;;4.45;3.05;;;3.70;67.50;;;;;;5035721;28;20112;-44
2021/11/23 06:59:25;;;;;;;4.13;2.90;;;3.70;67.40;;;;;;5036559;28;20304;-34
2021/11/23 07:01:51;;;;;;;5.40;2.83;;;3.70;67.20;;;;;;5035309;28;20037;-35
2021/11/23 07:04:18;;;;;;;4.78;2.75;;;3.70;67.10;;;;;;5034251;28;20029;-35
2021/11/23 07:06:44;;;;;;;8.82;2.78;;;3.70;67.10;;;;;;5036288;28;20334;-36
2021/11/23 07:09:11;;;;;;;4.10;3.00;;;3.80;67.10;;;;;;5035428;28;20084;-47
2021/11/23 07:11:37;;;;;;;5.80;2.60;;;3.80;67.00;;;;;;5035161;28;20037;-46
2021/11/23 07:14:06;;;;;;;6.03;2.70;;;3.80;66.70;;;;;;5035537;28;20129;-41
2021/11/23 07:16:34;;;;;;;4.90;2.72;;;3.80;66.70;;;;;;5035558;28;20068;-34
2021/11/23 07:19:00;;;;;;;2.53;2.08;;;3.80;66.70;;;;;;5035110;28;20434;-31
2021/11/23 07:21:27;;;;;;;7.32;2.63;;;3.70;66.30;;;;;;5034924;28;20072;-34
2021/11/23 07:23:53;;;;;;;3.42;2.80;;;3.70;66.10;;;;;;5035071;28;20025;-38
2021/11/23 07:26:18;;;;;;;5.43;2.63;;;3.70;66.10;;;;;;5034820;28;20037;-35
2021/11/23 07:28:45;;;;;;;4.88;3.13;;;3.70;66.00;;;;;;5034720;28;20506;-35
2021/11/23 07:31:10;;;;;;;5.03;3.05;;;3.60;65.70;;;;;;5035086;28;20030;-37
2021/11/23 07:33:36;;;;;;;4.93;2.78;;;3.60;65.60;;;;;;5034815;28;20048;-46
2021/11/23 07:36:02;;;;;;;6.43;3.35;;;3.60;65.60;;;;;;5035133;28;20033;-46
2021/11/23 07:38:28;;;;;;;8.20;2.90;;;3.60;65.70;;;;;;5034676;28;20037;-40
2021/11/23 07:40:54;;;;;;;8.95;3.85;;;3.60;66.20;;;;;;5035540;28;20053;-35
2021/11/23 07:43:19;;;;;;;5.18;3.00;;;3.70;65.60;;;;;;5035096;28;20108;-35
2021/11/23 07:45:45;;;;;;;3.72;2.50;;;3.70;65.40;;;;;;5036800;28;20030;-35
2021/11/23 07:48:12;;;;;;;5.32;3.10;;;3.70;65.20;;;;;;5038978;28;20033;-45
2021/11/23 07:50:39;;;;;;;4.57;2.78;;;3.70;65.20;;;;;;5038440;28;20099;-46
2021/11/23 07:53:05;;;;;;;5.38;2.90;;;3.70;64.80;;;;;;5038527;28;20075;-35
2021/11/23 07:55:31;;;;;;;4.78;2.85;;;3.70;64.90;;;;;;5038277;28;20327;-46
2021/11/23 07:57:56;;;;;;;4.18;2.40;;;3.70;65.00;;;;;;5038537;28;20045;-46
2021/11/23 08:00:23;;;;;;;3.22;2.22;;;3.70;64.90;;;;;;5038740;28;20113;-46
2021/11/23 08:02:49;;;;;;;4.38;2.47;;;3.70;64.70;;;;;;5038502;28;20242;-35
2021/11/23 08:05:15;;;;;;;4.25;2.60;;;3.70;64.50;;;;;;5038599;28;20029;-36
2021/11/23 08:07:41;;;;;;;4.03;2.63;;;3.80;64.30;;;;;;5038310;28;20113;-35
2021/11/23 08:10:07;;;;;;;3.63;2.33;;;3.80;64.00;;;;;;5038113;28;20033;-45
2021/11/23 08:12:34;;;;;;;4.20;2.58;;;3.80;63.60;;;;;;5038539;28;20382;-36
2021/11/23 08:15:00;;;;;;;6.15;2.53;;;3.80;63.40;;;;;;5038660;28;20053;-38
2021/11/23 08:17:26;;;;;;;4.07;2.42;;;3.70;63.30;;;;;;5038054;28;20036;-35
2021/11/23 08:19:52;;;;;;;6.68;3.30;;;3.70;63.40;;;;;;5038096;28;20025;-46
2021/11/23 08:22:18;;;;;;;6.20;3.38;;;3.70;63.50;;;;;;5038339;28;20354;-46
2021/11/23 08:24:44;;;;;;;5.72;3.30;;;3.70;63.60;;;;;;5038378;28;20036;-46
2021/11/23 08:27:10;;;;;;;5.30;2.90;;;3.70;63.50;;;;;;5038028;28;20029;-46
2021/11/23 08:29:36;;;;;;;4.93;3.00;;;3.70;63.30;;;;;;5038424;28;20321;-36
2021/11/23 08:32:02;;;;;;;6.70;4.15;;;3.70;63.10;;;;;;5037881;28;20041;-36
2021/11/23 08:34:28;;;;;;;7.80;3.40;;;3.70;63.00;;;;;;5038074;28;20410;-35
2021/11/23 08:36:54;;;;;;;9.25;5.05;;;3.80;62.50;;;;;;5037576;28;20103;-36
2021/11/23 08:39:20;;;;;;;6.88;3.92;;;3.80;62.20;;;;;;5038291;28;20045;-49
2021/11/23 08:41:47;;;;;;;9.93;3.35;;;3.80;62.10;;;;;;5036906;28;20072;-37
2021/11/23 08:44:14;;;;;;;6.05;3.15;;;3.80;61.90;;;;;;5038371;28;20051;-46
2021/11/23 08:46:40;;;;;;;4.28;2.47;;;3.80;62.00;;;;;;5037943;28;20374;-35
2021/11/23 08:49:06;;;;;;;4.05;2.22;;;3.80;62.00;;;;;;5037995;28;20033;-35
2021/11/23 08:51:37;;;;;;;5.63;2.50;;;3.80;61.80;;;;;;5037682;28;20025;-46
2021/11/23 08:54:04;;;;;;;3.70;2.50;;;3.90;61.80;;;;;;5037488;28;20041;-46
2021/11/23 08:56:38;;;;;;;6.72;2.80;;;3.90;61.60;;;;;;5037117;28;20355;-34
2021/11/23 08:59:15;;;;;;;3.08;2.30;;;4.00;61.30;;;;;;5037743;28;20079;-46
2021/11/23 09:01:41;;;;;;;3.10;2.53;;;4.00;61.00;;;;;;5037854;28;20026;-46
2021/11/23 09:04:07;;;;;;;5.88;3.28;;;4.00;61.00;;;;;;5037877;28;20108;-35
2021/11/23 09:06:37;;;;;;;4.53;3.13;;;4.10;61.00;;;;;;5037496;28;20468;-47
2021/11/23 09:09:05;;;;;;;5.17;3.30;;;4.10;60.80;;;;;;5037870;28;20426;-46
2021/11/23 09:11:31;;;;;;;5.30;3.40;;;4.10;60.90;;;;;;5038215;28;20319;-47
2021/11/23 09:13:57;;;;;;;4.90;2.92;;;4.10;60.80;;;;;;5038042;28;20032;-40
2021/11/23 09:16:23;;;;;;;9.80;4.53;;;4.10;60.50;;;;;;5037204;28;20034;-47
2021/11/23 09:18:49;;;;;;;6.47;3.13;;;4.20;60.50;;;;;;5037470;28;20033;-38
2021/11/23 09:21:16;;;;;;;4.95;3.17;;;4.20;60.30;;;;;;5037363;28;20108;-37
2021/11/23 09:23:41;;;;;;;3.03;2.30;;;4.20;60.00;;;;;;5036756;28;20030;-46
2021/11/23 09:26:09;;;;;;;5.88;3.40;;;4.20;59.70;;;;;;5037156;28;20043;-46
2021/11/23 09:28:35;;;;;;;11.27;2.50;;;4.20;59.30;;;;;;5037470;28;20331;-46
2021/11/23 09:31:02;;;;;;;5.30;3.13;;;4.20;59.20;;;;;;5037691;28;20030;-35
2021/11/23 09:33:27;;;;;;;2.85;2.28;;;4.20;59.30;;;;;;5037303;28;20367;-46
2021/11/23 09:35:53;;;;;;;3.15;2.35;;;4.20;58.90;;;;;;5037557;28;20067;-35
2021/11/23 09:38:19;;;;;;;5.72;2.53;;;4.20;58.30;;;;;;5037179;28;20037;-46
2021/11/23 09:40:45;;;;;;;5.35;2.50;;;4.20;58.20;;;;;;5037636;28;20472;-46
2021/11/23 09:43:10;;;;;;;2.65;2.10;;;4.20;58.30;;;;;;5036761;28;20033;-36
2021/11/23 09:45:37;;;;;;;3.08;2.25;;;4.20;58.10;;;;;;5037526;28;20029;-47
2021/11/23 09:48:05;;;;;;;4.13;2.78;;;4.20;58.10;;;;;;5037007;28;20410;-46
2021/11/23 09:50:31;;;;;;;4.35;2.47;;;4.20;58.00;;;;;;5037280;28;20041;-46
2021/11/23 09:52:57;;;;;;;5.93;3.65;;;4.20;58.00;;;;;;5036684;28;20033;-36
2021/11/23 09:55:23;;;;;;;4.65;3.00;;;4.30;58.10;;;;;;5036691;28;20103;-37
2021/11/23 09:57:48;;;;;;;3.90;2.38;;;4.30;58.20;;;;;;5036365;28;20110;-36
2021/11/23 10:00:23;;;;;;;4.80;2.80;;;4.30;58.20;;;;;;5037017;28;20033;-46
2021/11/23 10:02:49;;;;;;;3.08;2.10;;;4.40;58.00;;;;;;5036206;28;20026;-46
2021/11/23 10:05:15;;;;;;;2.58;1.92;;;4.50;58.10;;;;;;5036639;28;20026;-34
2021/11/23 10:07:44;;;;;;;4.22;2.50;;;4.50;57.80;;;;;;5036530;28;20420;-33
2021/11/23 10:10:11;;;;;;;6.80;3.13;;;4.50;57.50;;;;;;5036457;28;20040;-40
2021/11/23 10:12:37;;;;;;;3.58;2.28;;;4.50;57.40;;;;;;5036565;28;20037;-40
2021/11/23 10:15:19;;;;;;;3.13;2.30;;;4.50;57.20;;;;;;5036581;28;20428;-39
2021/11/23 10:17:47;;;;;;;6.00;2.80;;;4.50;56.90;;;;;;5036368;28;20330;-46
2021/11/23 10:20:30;;;;;;;3.70;2.38;;;4.50;57.00;;;;;;5036750;28;20409;-45
2021/11/23 10:23:06;;;;;;;3.65;2.80;;;4.50;57.20;;;;;;5034930;28;20033;-37
2021/11/23 10:25:32;;;;;;;7.35;2.70;;;4.60;57.30;;;;;;5036824;28;20026;-47
2021/11/23 10:27:58;;;;;;;4.55;2.40;;;4.50;56.90;;;;;;5036130;28;20038;-46
2021/11/23 10:30:24;;;;;;;3.60;2.45;;;4.60;57.00;;;;;;5036634;28;20480;-37
2021/11/23 10:32:53;;;;;;;6.63;2.85;;;4.60;57.00;;;;;;5036120;28;20041;-35
2021/11/23 10:35:22;;;;;;;4.20;2.75;;;4.60;56.80;;;;;;5036593;28;20051;-45
2021/11/23 10:37:48;;;;;;;4.10;2.90;;;4.60;56.80;;;;;;5036010;28;20038;-46
2021/11/23 10:40:24;;;;;;;4.70;2.83;;;4.70;57.00;;;;;;5036342;28;20022;-46
2021/11/23 10:42:52;;;;;;;5.85;2.92;;;4.70;56.90;;;;;;5036116;28;20029;-46
2021/11/23 10:45:19;;;;;;;5.50;2.83;;;4.80;56.70;;;;;;5036272;28;20120;-47
2021/11/23 10:47:46;;;;;;;6.30;2.60;;;4.80;56.40;;;;;;5036002;28;20322;-47
2021/11/23 10:50:14;;;;;;;3.42;2.20;;;4.80;56.10;;;;;;5036126;28;20352;-36
2021/11/23 10:52:44;;;;;;;2.92;2.28;;;4.90;56.40;;;;;;5044080;28;20040;-35
2021/11/23 10:55:27;;;;;;;3.47;1.90;;;4.90;56.10;;;;;;5055523;28;20052;-37
2021/11/23 10:57:55;;;;;;;4.80;2.75;;;5.00;55.80;;;;;;5055548;28;20041;-37
2021/11/23 11:00:23;;;;;;;7.78;3.30;;;5.00;55.90;;;;;;5055853;28;20378;-47
2021/11/23 11:02:53;;;;;;;5.22;2.58;;;5.10;55.70;;;;;;5054968;28;20414;-47
2021/11/23 11:05:19;;;;;;;3.78;2.63;;;5.10;55.30;;;;;;5055576;28;20033;-36
2021/11/23 11:07:46;;;;;;;3.35;2.30;;;5.10;55.00;;;;;;5055238;28;20033;-47
2021/11/23 11:10:13;;;;;;;4.13;2.75;;;5.20;55.10;;;;;;5055151;28;20037;-46
2021/11/23 11:12:39;;;;;;;3.25;2.20;;;5.20;54.90;;;;;;5055096;28;20043;-46
2021/11/23 11:15:10;;;;;;;3.60;2.20;;;5.30;55.00;;;;;;5055797;28;20040;-36
2021/11/23 11:17:37;;;;;;;3.53;2.42;;;5.30;55.70;;;;;;5048521;28;20029;-47
2021/11/23 11:20:06;;;;;;;3.95;2.50;;;5.40;54.60;;;;;;5055099;28;20417;-35
2021/11/23 11:22:32;;;;;;;4.88;2.38;;;5.40;54.60;;;;;;5054853;28;20029;-38
2021/11/23 11:27:46;;;;;;;4.07;2.38;;;5.50;54.20;;;;;;5054844;28;20025;-38
2021/11/23 11:30:25;;;;;;;3.35;2.65;;;5.50;54.00;;;;;;5055681;28;20120;-38
2021/11/23 11:32:58;;;;;;;3.15;2.30;;;5.60;54.10;;;;;;5045644;28;20041;-46
2021/11/23 11:35:36;;;;;;;4.28;2.70;;;5.60;54.30;;;;;;5050303;28;20029;-36
2021/11/23 11:38:26;;;;;;;3.38;2.30;;;5.70;54.30;;;;;;5041349;28;20048;-38
2021/11/23 11:41:02;;;;;;;2.80;2.38;;;5.80;54.40;;;;;;5037415;28;20275;-39
2021/11/23 11:43:40;;;;;;;3.33;2.40;;;5.80;54.10;;;;;;5034727;28;20045;-36
2021/11/23 11:46:08;;;;;;;4.40;2.75;;;5.90;53.90;;;;;;5035223;28;20108;-48
2021/11/23 11:48:37;;;;;;;4.53;2.65;;;5.90;53.90;;;;;;5035198;28;20042;-47
2021/11/23 11:51:07;;;;;;;4.53;3.08;;;5.90;53.80;;;;;;5035342;28;20330;-36
2021/11/23 11:53:44;;;;;;;3.65;2.17;;;5.90;53.70;;;;;;5035119;28;20342;-37
2021/11/23 11:56:12;;;;;;;3.90;2.65;;;5.90;53.70;;;;;;5034581;28;20147;-48
2021/11/23 11:58:52;;;;;;;6.75;2.53;;;5.80;53.40;;;;;;5035059;28;20365;-35
2021/11/23 12:01:26;;;;;;;3.55;2.40;;;5.70;53.50;;;;;;5034791;28;20034;-35
2021/11/23 12:04:09;;;;;;;3.60;2.78;;;5.70;53.80;;;;;;5034985;28;20025;-31
2021/11/23 12:06:56;;;;;;;5.10;2.45;;;5.70;53.80;;;;;;5034579;28;20034;-46
2021/11/23 12:09:31;;;;;;;3.95;3.00;;;5.60;53.90;;;;;;5034925;28;20061;-39
2021/11/23 12:12:12;;;;;;;4.97;3.00;;;5.60;54.20;;;;;;5033731;28;20030;-46
2021/11/23 12:14:54;;;;;;;9.23;2.90;;;5.60;54.10;;;;;;5035284;28;20420;-46
2021/11/23 12:17:49;;;;;;;6.57;3.10;;;5.60;54.20;;;;;;5034627;28;20049;-40
2021/11/23 12:20:49;;;;;;;6.07;3.03;;;5.60;54.50;;;;;;5035143;28;20056;-32
2021/11/23 12:23:37;;;;;;;4.60;3.40;;;5.60;54.70;;;;;;5034731;28;20422;-39
2021/11/23 12:26:15;;;;;;;10.10;3.08;;;5.70;54.60;;;;;;5035258;28;20041;-33
2021/11/23 12:28:56;;;;;;;4.82;3.38;;;5.70;54.60;;;;;;5035277;28;20430;-36
2021/11/23 12:31:28;;;;;;;4.38;2.53;;;5.60;54.60;;;;;;5034816;28;20037;-47
2021/11/23 12:34:01;;;;;;;4.22;2.75;;;5.60;54.60;;;;;;5038139;28;20059;-36
2021/11/23 12:36:29;;;;;;;3.45;2.75;;;5.60;54.40;;;;;;5037041;28;20071;-36
2021/11/23 12:39:11;;;;;;;4.07;3.00;;;5.60;54.40;;;;;;5037343;28;20018;-36
2021/11/23 12:41:38;;;;;;;4.65;2.85;;;5.60;54.40;;;;;;5038491;28;20037;-45
2021/11/23 12:44:21;;;;;;;5.32;3.28;;;5.60;54.50;;;;;;5037663;28;20164;-47
2021/11/23 12:47:00;;;;;;;5.97;3.28;;;5.60;54.50;;;;;;5037706;28;20053;-35
2021/11/23 12:49:27;;;;;;;5.63;3.63;;;5.60;54.70;;;;;;5038119;28;20033;-35
2021/11/23 12:51:59;;;;;;;7.82;4.07;;;5.60;54.90;;;;;;5037886;28;20033;-36
2021/11/23 12:54:31;;;;;;;3.58;2.75;;;5.60;55.00;;;;;;5037735;28;20087;-37
2021/11/23 12:57:02;;;;;;;3.78;2.30;;;5.60;54.80;;;;;;5037922;28;20446;-34
2021/11/23 12:59:42;;;;;;;3.70;2.47;;;5.60;54.70;;;;;;5038343;28;20026;-46
2021/11/23 13:02:29;;;;;;;7.70;3.63;;;5.60;54.50;;;;;;5037692;28;20115;-45